Time;durP1;ratioP1;P1;durP2;ratioP2;P2;SDS_P1;SDS_P2;PMS_P1;PMS_P2;Temp;Humidity;BMP_temperature;BMP_pressure;BME280_temperature;BME280_humidity;BME280_pressure;Samples;Min_cycle;Max_cycle;Signal;HPM_P1;HPM_P2
2022/01/11 00:00:35;;;;;;;11.00;6.35;;;-3.60;99.90;;;;;;5053828;28;20037;-84
2022/01/11 00:03:02;;;;;;;13.95;5.80;;;-3.60;99.90;;;;;;5054038;28;20041;-84
2022/01/11 00:07:56;;;;;;;9.45;5.53;;;-3.70;99.90;;;;;;5053477;28;20031;-84
2022/01/11 00:10:35;;;;;;;11.32;5.43;;;-3.60;99.90;;;;;;5054158;28;20108;-84
2022/01/11 00:13:01;;;;;;;12.77;6.55;;;-3.60;99.90;;;;;;5036071;28;20455;-84
2022/01/11 00:15:28;;;;;;;9.10;5.90;;;-3.70;99.90;;;;;;5053921;28;20039;-84
2022/01/11 00:17:57;;;;;;;10.23;5.97;;;-3.70;99.90;;;;;;5053663;28;20052;-84
2022/01/11 00:20:28;;;;;;;11.68;6.57;;;-3.70;99.90;;;;;;5036179;28;20064;-85
2022/01/11 00:25:45;;;;;;;13.38;6.32;;;-3.60;99.90;;;;;;5025252;28;20037;-83
2022/01/11 00:28:13;;;;;;;11.55;5.82;;;-3.70;99.90;;;;;;5035829;28;20021;-82
2022/01/11 00:30:41;;;;;;;9.25;5.13;;;-3.70;99.90;;;;;;5035673;28;20044;-85
2022/01/11 00:33:12;;;;;;;9.70;5.90;;;-3.70;99.70;;;;;;5035848;28;20028;-84
2022/01/11 00:35:43;;;;;;;9.32;5.50;;;-3.70;99.20;;;;;;5037338;28;20027;-83
2022/01/11 00:38:17;;;;;;;9.15;4.82;;;-3.80;99.00;;;;;;5058684;28;20079;-83
2022/01/11 00:40:47;;;;;;;7.90;4.90;;;-3.90;99.00;;;;;;5057048;28;20120;-84
2022/01/11 00:43:13;;;;;;;8.80;4.63;;;-3.90;99.00;;;;;;5035805;28;20471;-84
2022/01/11 00:45:39;;;;;;;9.02;4.85;;;-3.80;99.00;;;;;;5035872;28;20357;-84
2022/01/11 00:48:05;;;;;;;8.48;4.55;;;-3.80;99.00;;;;;;5035551;28;20035;-83
2022/01/11 00:50:32;;;;;;;8.85;4.80;;;-3.70;99.20;;;;;;5053531;28;20031;-84
2022/01/11 00:53:00;;;;;;;8.00;4.45;;;-3.70;98.80;;;;;;5053488;28;20029;-84
2022/01/11 00:55:25;;;;;;;7.80;4.30;;;-3.70;98.70;;;;;;5036068;28;20025;-84
2022/01/11 00:57:51;;;;;;;8.85;4.18;;;-3.70;98.50;;;;;;5035555;28;20136;-84
2022/01/11 01:00:17;;;;;;;8.20;4.28;;;-3.60;98.50;;;;;;5053235;28;20060;-84
2022/01/11 01:02:43;;;;;;;8.75;4.53;;;-3.60;98.60;;;;;;5053497;28;20049;-83
2022/01/11 01:05:09;;;;;;;7.20;4.38;;;-3.50;98.50;;;;;;5053440;28;20336;-84
2022/01/11 01:07:35;;;;;;;8.90;4.80;;;-3.60;98.10;;;;;;5035385;28;20029;-83
2022/01/11 01:10:18;;;;;;;8.25;4.85;;;-3.60;97.70;;;;;;5053054;28;20083;-83
2022/01/11 01:12:44;;;;;;;10.45;4.75;;;-3.70;97.50;;;;;;5035492;28;20029;-84
2022/01/11 01:15:10;;;;;;;7.63;4.50;;;-3.70;97.90;;;;;;5053330;28;20513;-83
2022/01/11 01:17:36;;;;;;;9.05;4.55;;;-3.70;98.00;;;;;;5054023;28;20025;-83
2022/01/11 01:20:03;;;;;;;7.68;4.45;;;-3.70;98.30;;;;;;5057109;28;20032;-83
2022/01/11 01:22:29;;;;;;;6.53;3.95;;;-3.70;98.50;;;;;;5039434;28;20121;-83
2022/01/11 01:24:55;;;;;;;5.60;3.88;;;-3.60;98.40;;;;;;5056797;28;20469;-84
2022/01/11 01:27:20;;;;;;;6.82;3.90;;;-3.60;98.50;;;;;;5057410;28;20052;-84
2022/01/11 01:29:46;;;;;;;7.97;4.50;;;-3.60;98.50;;;;;;5056988;28;20029;-84
2022/01/11 01:32:11;;;;;;;9.60;4.47;;;-3.50;98.10;;;;;;5039143;28;20021;-84
2022/01/11 01:34:37;;;;;;;7.88;4.28;;;-3.50;98.20;;;;;;5039128;28;20029;-83
2022/01/11 01:37:03;;;;;;;7.88;4.13;;;-3.60;97.70;;;;;;5040575;28;20049;-83
2022/01/11 01:39:29;;;;;;;6.95;4.20;;;-3.60;97.60;;;;;;5041835;28;20057;-83
2022/01/11 01:41:56;;;;;;;7.13;4.43;;;-3.60;97.70;;;;;;5061199;28;20394;-83
2022/01/11 01:44:22;;;;;;;8.23;4.60;;;-3.60;97.00;;;;;;5039179;28;20379;-84
2022/01/11 01:46:48;;;;;;;8.30;4.97;;;-3.70;97.00;;;;;;5056788;28;20029;-84
2022/01/11 01:49:19;;;;;;;8.27;4.63;;;-3.70;97.20;;;;;;5056766;28;20360;-84
2022/01/11 01:51:45;;;;;;;;;;;-3.70;97.30;;;;;;5057510;28;20072;-82
2022/01/11 01:54:13;;;;;;;7.70;4.10;;;-3.70;96.40;;;;;;5038850;28;19912;-83
2022/01/11 01:56:39;;;;;;;7.75;4.03;;;-3.70;97.30;;;;;;5056528;28;20037;-83
2022/01/11 01:59:05;;;;;;;7.15;4.40;;;-3.60;97.30;;;;;;5056523;28;20383;-83
2022/01/11 02:01:35;;;;;;;8.80;4.70;;;-3.60;97.00;;;;;;5038232;28;20056;-83
2022/01/11 02:04:01;;;;;;;8.70;5.03;;;-3.60;97.10;;;;;;5056545;28;20021;-83
2022/01/11 02:06:27;;;;;;;7.15;4.85;;;-3.60;97.10;;;;;;5038560;28;20031;-84
2022/01/11 02:08:52;;;;;;;12.05;5.90;;;-3.60;96.90;;;;;;5038650;28;20092;-83
2022/01/11 02:11:23;;;;;;;9.02;5.00;;;-3.70;96.80;;;;;;5056485;28;20379;-83
2022/01/11 02:13:49;;;;;;;8.40;5.03;;;-3.70;96.80;;;;;;5038450;28;20471;-83
2022/01/11 02:16:16;;;;;;;10.27;5.32;;;-3.60;97.20;;;;;;5055948;28;20521;-83
2022/01/11 02:18:45;;;;;;;11.95;5.90;;;-3.70;96.20;;;;;;5038091;28;20037;-83
2022/01/11 02:21:11;;;;;;;9.27;4.70;;;-3.70;96.40;;;;;;5038176;28;20048;-83
2022/01/11 02:23:36;;;;;;;9.25;5.65;;;-3.70;96.40;;;;;;5038088;28;20387;-83
2022/01/11 02:26:03;;;;;;;9.13;5.07;;;-3.70;96.50;;;;;;5038149;28;20033;-83
2022/01/11 02:28:29;;;;;;;9.60;5.05;;;-3.70;96.70;;;;;;5037813;28;20414;-83
2022/01/11 02:30:57;;;;;;;9.95;5.95;;;-3.70;96.20;;;;;;5037258;28;20369;-83
2022/01/11 02:33:58;;;;;;;11.05;5.88;;;-3.70;95.60;;;;;;5055933;28;20028;-84
2022/01/11 02:36:30;;;;;;;10.68;6.07;;;-3.80;94.40;;;;;;4955876;29;20062;-83
2022/01/11 02:38:57;;;;;;;12.57;5.90;;;-3.90;95.00;;;;;;5041746;28;20136;-83
2022/01/11 02:41:27;;;;;;;12.00;6.82;;;-4.00;95.70;;;;;;5059892;28;20036;-83
2022/01/11 02:43:53;;;;;;;10.48;5.88;;;-4.00;95.50;;;;;;5059117;28;20032;-84
2022/01/11 02:46:20;;;;;;;10.27;6.07;;;-4.00;96.00;;;;;;5055907;28;20459;-84
2022/01/11 02:48:50;;;;;;;10.52;5.20;;;-4.00;96.00;;;;;;5037618;28;20037;-84
2022/01/11 02:51:19;;;;;;;10.90;5.57;;;-4.00;95.90;;;;;;5055168;28;20028;-83
2022/01/11 02:53:49;;;;;;;14.00;6.28;;;-4.10;95.90;;;;;;5037767;28;20481;-82
2022/01/11 02:56:16;;;;;;;11.40;6.05;;;-4.10;95.90;;;;;;5055433;28;20040;-84
2022/01/11 02:58:42;;;;;;;12.25;6.32;;;-4.00;96.00;;;;;;5037433;28;20036;-83
2022/01/11 03:01:08;;;;;;;10.98;6.10;;;-4.10;96.20;;;;;;5037535;28;20091;-83
2022/01/11 03:03:34;;;;;;;9.05;5.70;;;-4.10;96.40;;;;;;5037358;28;20060;-82
2022/01/11 03:06:02;;;;;;;9.05;5.40;;;-4.10;96.60;;;;;;5037128;28;20056;-83
2022/01/11 03:08:34;;;;;;;12.88;6.35;;;-4.10;96.50;;;;;;5054908;28;20104;-83
2022/01/11 03:11:00;;;;;;;11.88;6.18;;;-4.00;96.20;;;;;;5055425;28;20025;-83
2022/01/11 03:13:26;;;;;;;12.18;5.90;;;-4.10;95.90;;;;;;5037321;28;20044;-83
2022/01/11 03:15:53;;;;;;;10.35;5.45;;;-4.00;95.80;;;;;;5037138;28;20024;-83
2022/01/11 03:18:20;;;;;;;13.30;5.88;;;-4.00;95.80;;;;;;5055153;28;20033;-83
2022/01/11 03:20:48;;;;;;;8.95;5.60;;;-4.00;95.40;;;;;;5054769;28;20041;-84
2022/01/11 03:23:16;;;;;;;11.38;5.75;;;-4.00;95.30;;;;;;5037173;28;20078;-83
2022/01/11 03:25:42;;;;;;;10.35;5.53;;;-4.00;95.10;;;;;;5055034;28;20154;-83
2022/01/11 03:28:08;;;;;;;10.30;5.55;;;-4.00;94.90;;;;;;5037369;28;20387;-84
2022/01/11 03:30:34;;;;;;;10.77;5.30;;;-3.90;94.80;;;;;;5037040;28;20035;-85
2022/01/11 03:32:59;;;;;;;11.05;5.70;;;-3.90;94.60;;;;;;5036875;28;20025;-86
2022/01/11 03:35:28;;;;;;;12.80;6.18;;;-3.90;94.50;;;;;;5054960;28;20029;-84
2022/01/11 03:37:54;;;;;;;12.45;6.22;;;-4.00;94.40;;;;;;5037011;28;20056;-85
2022/01/11 03:40:24;;;;;;;12.52;6.88;;;-3.90;94.30;;;;;;5036910;28;20072;-84
2022/01/11 03:42:50;;;;;;;13.77;6.20;;;-3.90;94.00;;;;;;5039723;28;20045;-84
2022/01/11 03:45:20;;;;;;;12.23;6.47;;;-3.90;93.90;;;;;;5057562;28;20502;-83
2022/01/11 03:47:46;;;;;;;9.30;5.70;;;-3.90;94.10;;;;;;5054976;28;20056;-84
2022/01/11 03:50:12;;;;;;;11.07;5.32;;;-3.90;94.50;;;;;;5035902;28;20067;-84
2022/01/11 03:52:39;;;;;;;11.60;5.72;;;-3.80;94.20;;;;;;5054281;28;20057;-85
2022/01/11 03:55:12;;;;;;;16.70;7.07;;;-3.80;94.10;;;;;;5054296;28;20108;-85
2022/01/11 03:57:39;;;;;;;12.43;6.55;;;-3.90;93.60;;;;;;5036664;28;20371;-84
2022/01/11 04:00:12;;;;;;;12.02;6.78;;;-3.90;93.60;;;;;;5036054;28;20037;-87
2022/01/11 04:02:38;;;;;;;9.13;5.72;;;-3.80;93.70;;;;;;5016255;28;20141;-84
2022/01/11 04:05:05;;;;;;;12.98;6.90;;;-3.80;94.10;;;;;;5032721;28;20048;-85
2022/01/11 04:07:31;;;;;;;13.20;6.85;;;-3.80;93.20;;;;;;5033299;28;20023;-86
2022/01/11 04:09:57;;;;;;;11.98;6.40;;;-3.90;93.40;;;;;;5035399;28;20115;-85
2022/01/11 04:12:23;;;;;;;9.90;5.57;;;-3.90;93.40;;;;;;5053614;28;20021;-85
2022/01/11 04:14:49;;;;;;;14.27;6.30;;;-3.80;93.40;;;;;;5035427;28;20025;-85
2022/01/11 04:17:15;;;;;;;11.88;5.80;;;-3.80;93.30;;;;;;5053659;28;20072;-85
2022/01/11 04:19:41;;;;;;;9.50;5.25;;;-3.80;93.30;;;;;;5036131;28;20129;-85
2022/01/11 04:22:07;;;;;;;12.48;6.50;;;-3.80;93.50;;;;;;5034975;28;20029;-84
2022/01/11 04:24:33;;;;;;;10.35;6.35;;;-3.80;93.20;;;;;;5035922;28;20078;-84
2022/01/11 04:26:59;;;;;;;13.63;6.32;;;-3.80;93.30;;;;;;5037587;28;20124;-85
2022/01/11 04:29:25;;;;;;;13.98;6.32;;;-3.80;93.30;;;;;;5053436;28;20079;-85
2022/01/11 04:31:51;;;;;;;11.18;6.10;;;-3.80;93.50;;;;;;5036236;28;20485;-86
2022/01/11 04:34:17;;;;;;;11.68;5.85;;;-3.80;93.50;;;;;;5036486;28;20035;-86
2022/01/11 04:36:43;;;;;;;12.93;6.68;;;-3.80;93.70;;;;;;5036251;28;20029;-84
2022/01/11 04:39:12;;;;;;;14.48;7.15;;;-3.80;93.70;;;;;;5036777;28;20480;-86
2022/01/11 04:41:38;;;;;;;14.35;7.03;;;-3.70;93.90;;;;;;5053725;28;20025;-85
2022/01/11 04:44:04;;;;;;;14.90;7.30;;;-3.80;94.00;;;;;;5036569;28;20108;-83
2022/01/11 04:46:30;;;;;;;12.43;6.75;;;-3.80;94.10;;;;;;5036205;28;20063;-83
2022/01/11 04:48:58;;;;;;;12.07;6.93;;;-3.80;94.20;;;;;;5054057;28;20049;-88
2022/01/11 04:51:24;;;;;;;14.40;7.38;;;-3.60;94.40;;;;;;5033056;28;20028;-82
2022/01/11 04:53:50;;;;;;;14.57;7.93;;;-3.70;94.50;;;;;;5034381;28;20052;-82
2022/01/11 04:56:16;;;;;;;16.02;8.50;;;-3.80;94.60;;;;;;5034963;28;20457;-81
2022/01/11 04:58:42;;;;;;;14.98;7.97;;;-3.80;94.60;;;;;;5034663;28;20021;-82
2022/01/11 05:01:08;;;;;;;15.40;8.20;;;-3.80;94.90;;;;;;5033949;28;20080;-82
2022/01/11 05:03:34;;;;;;;17.50;9.07;;;-3.80;95.20;;;;;;5052225;28;20057;-83
2022/01/11 05:06:00;;;;;;;15.77;8.52;;;-3.60;95.40;;;;;;5034442;28;20035;-80
2022/01/11 05:08:26;;;;;;;15.18;8.45;;;-3.70;94.70;;;;;;5035284;28;20371;-86
2022/01/11 05:10:52;;;;;;;17.38;8.57;;;-3.80;94.90;;;;;;5035475;28;20048;-85
2022/01/11 05:13:19;;;;;;;15.60;8.20;;;-3.80;95.50;;;;;;5034765;28;20024;-86
2022/01/11 05:15:46;;;;;;;16.70;8.00;;;-3.80;95.40;;;;;;5031211;28;20059;-85
2022/01/11 05:18:12;;;;;;;15.27;7.50;;;-3.70;95.50;;;;;;5035228;28;20025;-85
2022/01/11 05:20:39;;;;;;;17.17;8.98;;;-3.80;95.50;;;;;;5017668;28;20088;-85
2022/01/11 05:23:05;;;;;;;20.77;8.85;;;-3.80;95.50;;;;;;5023934;28;20033;-84
2022/01/11 05:25:31;;;;;;;15.82;8.38;;;-3.80;95.50;;;;;;5053589;28;20497;-83
2022/01/11 05:27:59;;;;;;;14.50;7.93;;;-3.80;95.70;;;;;;5035223;28;20072;-81
2022/01/11 05:30:26;;;;;;;16.17;8.50;;;-3.80;95.80;;;;;;5035335;28;20044;-85
2022/01/11 05:32:52;;;;;;;15.48;8.13;;;-3.80;95.80;;;;;;5053756;28;20028;-83
2022/01/11 05:35:19;;;;;;;17.40;8.27;;;-3.80;95.90;;;;;;5054587;28;20104;-86
2022/01/11 05:37:46;;;;;;;14.82;8.55;;;-3.90;96.10;;;;;;5035249;28;20025;-85
2022/01/11 05:40:13;;;;;;;17.08;7.57;;;-3.90;96.20;;;;;;5052363;28;20043;-87
2022/01/11 05:42:40;;;;;;;13.40;7.25;;;-3.90;96.20;;;;;;5052241;28;20025;-86
2022/01/11 05:45:07;;;;;;;13.38;7.18;;;-3.90;96.40;;;;;;5052478;28;20037;-85
2022/01/11 05:47:33;;;;;;;14.73;7.43;;;-3.80;96.40;;;;;;5036049;28;20029;-85
2022/01/11 05:50:10;;;;;;;;;;;;;;;;;;;;;
2022/01/11 05:52:40;;;;;;;13.73;7.32;;;-3.90;96.20;;;;;;5051086;28;20025;-85
2022/01/11 05:55:08;;;;;;;14.77;7.10;;;-3.90;96.30;;;;;;5033792;28;20025;-85
2022/01/11 05:57:34;;;;;;;14.55;7.07;;;-3.90;96.30;;;;;;5032572;28;20032;-85
2022/01/11 06:00:00;;;;;;;14.85;7.90;;;-3.90;96.40;;;;;;5033374;28;20037;-85
2022/01/11 06:02:25;;;;;;;13.73;7.05;;;-3.90;96.10;;;;;;5034498;28;20518;-85
2022/01/11 06:04:51;;;;;;;13.85;6.72;;;-3.90;96.10;;;;;;5035581;28;20036;-85
2022/01/11 06:07:17;;;;;;;11.95;6.68;;;-3.80;96.20;;;;;;5038258;28;20025;-86
2022/01/11 06:09:43;;;;;;;13.65;7.07;;;-3.80;96.00;;;;;;5038163;28;20032;-85
2022/01/11 06:12:09;;;;;;;15.52;7.70;;;-3.80;95.80;;;;;;5056369;28;20029;-85
2022/01/11 06:14:35;;;;;;;13.70;7.05;;;-3.90;95.70;;;;;;5056743;28;20104;-84
2022/01/11 06:17:01;;;;;;;14.80;7.43;;;-3.90;95.70;;;;;;5056168;28;20021;-84
2022/01/11 06:19:27;;;;;;;15.77;7.68;;;-4.00;95.80;;;;;;5038235;28;20087;-85
2022/01/11 06:21:53;;;;;;;15.00;7.18;;;-3.90;96.20;;;;;;5038944;28;20033;-84
2022/01/11 06:24:18;;;;;;;13.88;6.78;;;-4.00;96.10;;;;;;5038861;28;20025;-83
2022/01/11 06:26:44;;;;;;;13.65;7.18;;;-4.00;96.40;;;;;;5058959;28;20029;-85
2022/01/11 06:29:10;;;;;;;15.07;7.40;;;-4.00;96.20;;;;;;5037619;28;20029;-85
2022/01/11 06:31:35;;;;;;;14.02;7.28;;;-4.00;96.00;;;;;;5037584;28;20064;-85
2022/01/11 06:34:02;;;;;;;14.40;6.88;;;-4.00;96.50;;;;;;5055450;28;20025;-85
2022/01/11 06:36:29;;;;;;;16.10;7.63;;;-3.90;96.70;;;;;;5037488;28;20039;-84
2022/01/11 06:38:54;;;;;;;14.80;6.93;;;-4.00;96.70;;;;;;5037675;28;20037;-85
2022/01/11 06:41:20;;;;;;;16.17;7.20;;;-3.90;96.60;;;;;;5039021;28;20036;-86
2022/01/11 06:43:46;;;;;;;16.75;7.28;;;-4.00;96.50;;;;;;5038018;28;20028;-84
2022/01/11 06:46:11;;;;;;;14.20;7.13;;;-4.00;96.50;;;;;;5038562;28;20030;-81
2022/01/11 06:48:37;;;;;;;11.73;6.40;;;-4.00;96.40;;;;;;5019093;28;20029;-82
2022/01/11 06:51:06;;;;;;;11.45;6.28;;;-4.00;96.70;;;;;;5037178;28;20029;-83
2022/01/11 06:53:32;;;;;;;13.63;6.97;;;-3.90;96.70;;;;;;5049993;28;20503;-82
2022/01/11 06:55:58;;;;;;;14.52;7.03;;;-4.00;96.90;;;;;;5050319;28;20108;-81
2022/01/11 06:58:24;;;;;;;14.25;6.35;;;-4.00;97.00;;;;;;5032851;28;20032;-84
2022/01/11 07:00:50;;;;;;;15.20;7.53;;;-4.00;97.20;;;;;;5034262;28;20032;-81
2022/01/11 07:03:16;;;;;;;15.13;7.18;;;-4.00;97.80;;;;;;5037376;28;20037;-85
2022/01/11 07:05:50;;;;;;;12.73;6.68;;;-4.00;97.60;;;;;;5055430;28;20025;-83
2022/01/11 07:08:16;;;;;;;15.88;7.57;;;-4.00;98.10;;;;;;5037423;28;20025;-84
2022/01/11 07:10:42;;;;;;;11.60;5.97;;;-4.00;98.40;;;;;;5037371;28;20032;-83
2022/01/11 07:13:08;;;;;;;12.40;6.22;;;-4.00;98.30;;;;;;5054909;28;20032;-82
2022/01/11 07:15:33;;;;;;;10.57;5.93;;;-4.00;98.00;;;;;;5054895;28;20020;-83
2022/01/11 07:18:04;;;;;;;10.82;5.88;;;-3.90;97.80;;;;;;5037014;28;20024;-84
2022/01/11 07:20:29;;;;;;;9.48;5.75;;;-3.90;97.50;;;;;;5054474;28;20120;-84
2022/01/11 07:22:55;;;;;;;11.90;6.47;;;-3.90;97.60;;;;;;5036970;28;20144;-81
2022/01/11 07:25:22;;;;;;;13.38;6.65;;;-3.90;97.60;;;;;;5036193;28;20036;-84
2022/01/11 07:27:48;;;;;;;12.18;6.82;;;-3.90;97.60;;;;;;5037931;28;20029;-79
2022/01/11 07:30:13;;;;;;;61.10;28.52;;;-3.90;97.60;;;;;;5039267;28;20029;-80
2022/01/11 07:32:39;;;;;;;23.88;12.45;;;-3.90;97.50;;;;;;5033131;28;20036;-79
2022/01/11 07:35:06;;;;;;;18.15;8.43;;;-3.90;97.10;;;;;;5033904;28;20423;-78
2022/01/11 07:37:31;;;;;;;14.60;7.03;;;-3.90;97.20;;;;;;5034264;28;20083;-77
2022/01/11 07:39:57;;;;;;;11.60;6.28;;;-3.90;96.90;;;;;;5016670;28;20030;-79
2022/01/11 07:42:23;;;;;;;10.75;5.50;;;-3.90;97.00;;;;;;5016680;28;20029;-78
2022/01/11 07:44:51;;;;;;;12.43;5.63;;;-3.90;96.80;;;;;;5016391;28;20120;-80
2022/01/11 07:47:18;;;;;;;12.13;5.85;;;-3.90;97.00;;;;;;5035127;28;20033;-79
2022/01/11 07:49:47;;;;;;;9.75;5.00;;;-3.90;96.20;;;;;;5034475;28;20033;-77
2022/01/11 07:52:14;;;;;;;11.52;5.60;;;-3.80;96.50;;;;;;5033830;28;20018;-79
2022/01/11 07:54:40;;;;;;;7.93;4.70;;;-3.80;96.60;;;;;;5033808;28;20033;-77
2022/01/11 07:57:06;;;;;;;10.25;5.47;;;-3.70;96.50;;;;;;5033288;28;20025;-80
2022/01/11 07:59:32;;;;;;;8.57;4.78;;;-3.70;96.10;;;;;;5032540;28;20096;-78
2022/01/11 08:01:59;;;;;;;10.85;5.35;;;-3.70;94.50;;;;;;5033773;28;20112;-81
2022/01/11 08:04:26;;;;;;;13.70;6.50;;;-3.70;94.80;;;;;;5033670;28;20051;-78
2022/01/11 08:06:52;;;;;;;11.50;5.78;;;-3.70;95.00;;;;;;5033940;28;20131;-77
2022/01/11 08:09:18;;;;;;;10.48;5.28;;;-3.80;95.10;;;;;;5034788;28;20168;-78
2022/01/11 08:11:49;;;;;;;10.77;5.00;;;-3.80;95.00;;;;;;5017159;28;20061;-78
2022/01/11 08:14:15;;;;;;;11.77;5.72;;;-3.80;94.90;;;;;;5017913;28;20061;-79
2022/01/11 08:16:41;;;;;;;9.05;5.40;;;-3.80;94.80;;;;;;5034940;28;20522;-79
2022/01/11 08:19:06;;;;;;;10.15;5.63;;;-3.70;95.10;;;;;;5035389;28;20041;-78
2022/01/11 08:21:33;;;;;;;10.00;5.20;;;-3.60;94.90;;;;;;5016725;28;20132;-78
2022/01/11 08:23:59;;;;;;;9.57;5.15;;;-3.60;94.80;;;;;;5035404;28;20472;-79
2022/01/11 08:26:24;;;;;;;10.82;5.63;;;-3.50;95.10;;;;;;5038881;28;20055;-78
2022/01/11 08:29:02;;;;;;;10.98;5.60;;;-3.50;94.40;;;;;;5059785;28;20027;-82
2022/01/11 08:31:28;;;;;;;8.93;5.45;;;-3.50;93.20;;;;;;5043771;28;20044;-79
2022/01/11 08:33:54;;;;;;;12.15;5.72;;;-3.50;92.90;;;;;;5054933;28;20025;-79
2022/01/11 08:36:19;;;;;;;10.90;5.18;;;-3.60;92.60;;;;;;5036591;28;20033;-79
2022/01/11 08:38:45;;;;;;;10.32;4.75;;;-3.60;92.00;;;;;;5036897;28;20021;-79
2022/01/11 08:41:11;;;;;;;9.20;4.50;;;-3.60;91.20;;;;;;5036367;28;20025;-81
2022/01/11 08:43:37;;;;;;;7.50;4.25;;;-3.70;92.00;;;;;;5054237;28;20040;-79
2022/01/11 08:46:04;;;;;;;8.93;4.65;;;-3.70;91.50;;;;;;5055743;28;20021;-78
2022/01/11 08:48:30;;;;;;;8.82;4.82;;;-3.60;91.20;;;;;;5056040;28;20109;-78
2022/01/11 08:50:59;;;;;;;10.75;5.03;;;-3.70;91.40;;;;;;5038519;28;20204;-79
2022/01/11 08:53:24;;;;;;;8.27;5.07;;;-3.60;91.60;;;;;;5038908;28;20029;-78
2022/01/11 08:55:56;;;;;;;9.50;4.50;;;-3.60;91.40;;;;;;5039590;28;20088;-79
2022/01/11 08:58:22;;;;;;;10.02;4.68;;;-3.60;91.00;;;;;;5036798;28;20463;-78
2022/01/11 09:00:49;;;;;;;7.60;4.13;;;-3.70;90.90;;;;;;5036482;28;20052;-78
2022/01/11 09:03:18;;;;;;;7.93;4.40;;;-3.70;90.80;;;;;;5054158;28;20025;-81
2022/01/11 09:05:43;;;;;;;8.70;4.35;;;-3.70;91.20;;;;;;5053466;28;20013;-78
2022/01/11 09:08:12;;;;;;;8.73;4.57;;;-3.70;91.30;;;;;;5054981;28;20021;-79
2022/01/11 09:10:38;;;;;;;8.10;4.60;;;-3.70;90.80;;;;;;5036753;28;20025;-78
2022/01/11 09:13:03;;;;;;;10.98;5.00;;;-3.70;91.10;;;;;;5036386;28;20485;-79
2022/01/11 09:15:32;;;;;;;8.90;4.70;;;-3.80;91.00;;;;;;5037142;28;20403;-78
2022/01/11 09:18:01;;;;;;;9.25;4.28;;;-3.80;90.00;;;;;;5055381;28;20075;-78
2022/01/11 09:20:27;;;;;;;8.43;4.40;;;-3.80;89.20;;;;;;5055102;28;20068;-79
2022/01/11 09:22:54;;;;;;;8.52;4.85;;;-3.70;88.90;;;;;;5036289;28;20032;-79
2022/01/11 09:25:19;;;;;;;8.27;4.15;;;-3.70;88.50;;;;;;5054053;28;20021;-78
2022/01/11 09:27:45;;;;;;;11.02;5.18;;;-3.80;86.10;;;;;;5039307;28;20456;-78
2022/01/11 09:30:13;;;;;;;22.67;11.13;;;-3.80;88.30;;;;;;5036626;28;20147;-84
2022/01/11 09:32:41;;;;;;;21.77;10.30;;;-3.70;89.90;;;;;;5036846;28;20025;-78
2022/01/11 09:35:08;;;;;;;14.63;7.65;;;-3.60;90.00;;;;;;5036479;28;20025;-78
2022/01/11 09:37:34;;;;;;;12.02;5.80;;;-3.60;89.20;;;;;;5053777;28;20087;-79
2022/01/11 09:40:01;;;;;;;9.35;5.20;;;-3.60;89.40;;;;;;5057811;28;20020;-77
2022/01/11 09:42:27;;;;;;;10.65;4.97;;;-3.50;88.80;;;;;;5066919;28;20463;-78
2022/01/11 09:44:54;;;;;;;8.75;4.53;;;-3.50;89.10;;;;;;5058569;28;20021;-78
2022/01/11 09:47:23;;;;;;;7.78;4.40;;;-3.50;89.10;;;;;;5039929;28;20028;-78
2022/01/11 09:49:48;;;;;;;8.63;4.78;;;-3.50;89.00;;;;;;5040980;28;20036;-79
2022/01/11 09:52:24;;;;;;;11.20;5.35;;;-3.50;89.00;;;;;;5038672;28;20020;-78
2022/01/11 09:54:54;;;;;;;11.07;5.30;;;-3.50;88.40;;;;;;5038960;28;20032;-80
2022/01/11 09:57:23;;;;;;;12.52;5.30;;;-3.50;89.30;;;;;;5038505;28;20028;-77
2022/01/11 09:59:50;;;;;;;8.35;4.40;;;-3.40;86.90;;;;;;5051574;28;20123;-78
2022/01/11 10:02:18;;;;;;;8.27;4.68;;;-3.20;87.00;;;;;;5020014;28;20049;-79
2022/01/11 10:04:44;;;;;;;11.15;5.22;;;-3.00;88.40;;;;;;5037738;28;20033;-78
2022/01/11 10:07:11;;;;;;;8.65;4.68;;;-2.50;87.90;;;;;;5037262;28;20472;-78
2022/01/11 10:09:54;;;;;;;7.03;4.32;;;-2.10;85.90;;;;;;5036716;28;20157;-78
2022/01/11 10:12:22;;;;;;;9.75;5.00;;;-1.70;80.10;;;;;;5037750;28;20033;-76
2022/01/11 10:14:54;;;;;;;10.48;4.93;;;-1.30;79.30;;;;;;5019152;28;20075;-78
2022/01/11 10:17:27;;;;;;;9.15;4.80;;;-1.10;77.60;;;;;;5018641;28;20111;-78
2022/01/11 10:20:15;;;;;;;7.45;4.45;;;-0.90;75.50;;;;;;5017982;28;20045;-78
2022/01/11 10:22:47;;;;;;;9.32;5.38;;;-0.80;73.30;;;;;;5017884;28;20384;-78
2022/01/11 10:25:17;;;;;;;9.10;4.90;;;-0.70;75.00;;;;;;5018319;28;20033;-82
2022/01/11 10:27:46;;;;;;;8.93;5.07;;;-0.50;73.40;;;;;;5036818;28;20022;-77
2022/01/11 10:30:16;;;;;;;11.13;5.70;;;-0.60;72.60;;;;;;5036398;28;20039;-77
2022/01/11 10:32:47;;;;;;;155.38;90.00;;;-0.50;71.60;;;;;;5019602;28;20364;-84
2022/01/11 10:35:19;;;;;;;113.80;58.83;;;-0.30;72.40;;;;;;5036912;28;20429;-82
2022/01/11 10:37:47;;;;;;;45.60;22.75;;;0.00;69.70;;;;;;5019817;28;20021;-79
2022/01/11 10:40:17;;;;;;;20.00;10.82;;;0.00;69.20;;;;;;5018064;28;20030;-78
2022/01/11 10:42:49;;;;;;;12.47;6.87;;;0.60;68.80;;;;;;5044337;28;20390;-80
2022/01/11 10:45:17;;;;;;;9.75;5.35;;;1.00;67.40;;;;;;5055504;28;20387;-80
2022/01/11 10:47:47;;;;;;;8.35;4.68;;;1.30;65.30;;;;;;5054463;28;20029;-78
2022/01/11 10:50:27;;;;;;;8.87;4.57;;;1.30;64.00;;;;;;5036315;28;20108;-77
2022/01/11 10:52:54;;;;;;;6.38;4.22;;;1.80;63.30;;;;;;5034499;28;20270;-78
2022/01/11 10:55:22;;;;;;;7.32;4.22;;;2.40;64.80;;;;;;5054183;28;20025;-79
2022/01/11 10:57:54;;;;;;;7.72;4.38;;;3.00;63.00;;;;;;5036862;28;20029;-79
2022/01/11 11:00:22;;;;;;;9.40;3.92;;;3.40;60.40;;;;;;5036650;28;20112;-81
2022/01/11 11:03:07;;;;;;;9.88;4.85;;;3.40;59.60;;;;;;5036463;28;20072;-77
2022/01/11 11:05:34;;;;;;;8.23;4.60;;;3.10;56.70;;;;;;5035000;28;20024;-77
2022/01/11 11:08:04;;;;;;;8.15;4.00;;;3.10;58.40;;;;;;5054262;28;20048;-78
2022/01/11 11:10:38;;;;;;;7.68;4.00;;;2.90;57.80;;;;;;5035999;28;20382;-78
2022/01/11 11:13:07;;;;;;;8.00;4.07;;;3.00;57.60;;;;;;5033812;28;20040;-78
2022/01/11 11:15:38;;;;;;;10.63;4.40;;;2.70;57.40;;;;;;5054167;28;20032;-76
2022/01/11 11:18:06;;;;;;;34.78;17.38;;;2.60;57.90;;;;;;5030999;28;20360;-81
2022/01/11 11:20:33;;;;;;;29.38;16.33;;;2.60;57.90;;;;;;5054364;28;20029;-77
2022/01/11 11:23:04;;;;;;;17.70;9.20;;;2.60;57.10;;;;;;5035560;28;20094;-78
2022/01/11 11:25:29;;;;;;;11.73;6.65;;;2.50;57.80;;;;;;5035389;28;20028;-78
2022/01/11 11:27:55;;;;;;;9.90;4.50;;;2.30;57.80;;;;;;5053437;28;20029;-77
2022/01/11 11:30:22;;;;;;;6.38;3.85;;;2.50;58.60;;;;;;5035083;28;20063;-77
2022/01/11 11:32:48;;;;;;;8.68;4.45;;;2.90;58.70;;;;;;5035384;28;20036;-77
2022/01/11 11:35:15;;;;;;;7.45;4.70;;;3.10;57.10;;;;;;5053481;28;20018;-78
2022/01/11 11:37:45;;;;;;;10.35;4.72;;;3.50;57.20;;;;;;5054493;28;20032;-79
2022/01/11 11:40:21;;;;;;;8.90;4.50;;;3.50;55.50;;;;;;5054895;28;20183;-78
2022/01/11 11:42:55;;;;;;;6.78;4.00;;;3.70;55.00;;;;;;5034325;28;20110;-78
2022/01/11 11:45:29;;;;;;;7.25;4.20;;;3.80;55.60;;;;;;5036001;28;20028;-77
2022/01/11 11:48:07;;;;;;;8.75;4.47;;;4.10;56.20;;;;;;5054136;28;20032;-77
2022/01/11 11:50:44;;;;;;;9.82;5.50;;;4.20;55.70;;;;;;5037201;28;20033;-77
2022/01/11 11:53:26;;;;;;;10.85;5.82;;;4.00;55.90;;;;;;5055313;28;20024;-77
2022/01/11 11:56:14;;;;;;;8.15;4.97;;;4.00;55.00;;;;;;5036673;28;20115;-76
2022/01/11 11:58:42;;;;;;;6.25;3.88;;;3.90;54.30;;;;;;5037974;28;20040;-76
2022/01/11 12:01:49;;;;;;;6.75;3.78;;;3.30;55.70;;;;;;5036467;28;20062;-76
2022/01/11 12:04:16;;;;;;;6.75;3.88;;;2.70;56.10;;;;;;5054844;28;20028;-76
2022/01/11 12:06:43;;;;;;;5.80;3.58;;;1.80;58.60;;;;;;5036938;28;20471;-76
2022/01/11 12:09:12;;;;;;;8.00;4.30;;;1.10;60.20;;;;;;5037195;28;20024;-76
2022/01/11 12:11:51;;;;;;;7.38;4.60;;;0.70;61.90;;;;;;5054803;28;20056;-76
2022/01/11 12:14:38;;;;;;;7.05;4.32;;;0.20;63.80;;;;;;5037148;28;20025;-77
2022/01/11 12:17:23;;;;;;;8.30;4.20;;;-0.10;65.20;;;;;;5036938;28;20029;-77
2022/01/11 12:19:53;;;;;;;6.10;3.70;;;-0.50;66.10;;;;;;5036080;28;20040;-76
2022/01/11 12:22:27;;;;;;;6.85;3.60;;;-0.80;67.10;;;;;;5053755;28;20036;-75
2022/01/11 12:24:57;;;;;;;6.43;4.03;;;-0.80;67.60;;;;;;5054163;28;20064;-76
2022/01/11 12:27:24;;;;;;;5.72;3.80;;;-0.80;67.50;;;;;;5036288;28;20455;-76
2022/01/11 12:30:06;;;;;;;6.45;3.70;;;-1.00;67.50;;;;;;5053815;28;20032;-76
2022/01/11 12:32:56;;;;;;;6.95;3.70;;;-1.00;67.60;;;;;;5035900;28;20159;-75
2022/01/11 12:35:23;;;;;;;11.98;4.90;;;-1.20;68.10;;;;;;5053132;28;20029;-74
2022/01/11 12:37:48;;;;;;;17.40;5.63;;;-1.40;68.90;;;;;;5035792;28;20024;-76
2022/01/11 12:40:38;;;;;;;13.35;5.45;;;-1.50;69.10;;;;;;5035712;28;20513;-76
2022/01/11 12:43:20;;;;;;;10.02;4.97;;;-1.70;70.60;;;;;;5035686;28;20119;-76
2022/01/11 12:46:09;;;;;;;9.48;4.70;;;-1.80;71.20;;;;;;5035759;28;20045;-75
2022/01/11 12:48:45;;;;;;;9.90;4.22;;;-1.80;70.20;;;;;;5053642;28;20071;-76
2022/01/11 12:51:23;;;;;;;8.20;4.80;;;-1.80;70.00;;;;;;5035109;28;20459;-76
2022/01/11 12:53:49;;;;;;;9.60;5.20;;;-1.80;69.90;;;;;;5035525;28;20378;-75